sensor_id;sensor_type;location;lat;lon;timestamp;P1;durP1;ratioP1;P2;durP2;ratioP2
60243;SDS011;46106;51.468;5.814;2024-03-25T00:00:40;26.02;;;4.32;;
60243;SDS011;46106;51.468;5.814;2024-03-25T00:03:05;28.02;;;4.25;;
60243;SDS011;46106;51.468;5.814;2024-03-25T00:05:31;31.13;;;4.82;;
60243;SDS011;46106;51.468;5.814;2024-03-25T00:07:56;37.58;;;5.18;;
60243;SDS011;46106;51.468;5.814;2024-03-25T00:10:21;41.42;;;3.95;;
60243;SDS011;46106;51.468;5.814;2024-03-25T00:12:47;31.92;;;4.63;;
60243;SDS011;46106;51.468;5.814;2024-03-25T00:15:12;43.58;;;4.93;;
60243;SDS011;46106;51.468;5.814;2024-03-25T00:17:38;39.97;;;4.65;;
60243;SDS011;46106;51.468;5.814;2024-03-25T00:20:03;46.75;;;4.93;;
60243;SDS011;46106;51.468;5.814;2024-03-25T00:22:29;44.15;;;5.82;;
60243;SDS011;46106;51.468;5.814;2024-03-25T00:24:54;38.40;;;4.40;;
60243;SDS011;46106;51.468;5.814;2024-03-25T00:27:19;41.85;;;5.53;;
60243;SDS011;46106;51.468;5.814;2024-03-25T00:29:45;40.88;;;4.95;;
60243;SDS011;46106;51.468;5.814;2024-03-25T00:32:10;29.02;;;4.43;;
60243;SDS011;46106;51.468;5.814;2024-03-25T00:34:36;37.63;;;6.05;;
60243;SDS011;46106;51.468;5.814;2024-03-25T00:37:01;37.85;;;4.85;;
60243;SDS011;46106;51.468;5.814;2024-03-25T00:39:27;38.97;;;4.55;;
60243;SDS011;46106;51.468;5.814;2024-03-25T00:41:53;42.25;;;4.57;;
60243;SDS011;46106;51.468;5.814;2024-03-25T00:44:18;27.35;;;4.55;;
60243;SDS011;46106;51.468;5.814;2024-03-25T00:46:44;29.50;;;4.45;;
60243;SDS011;46106;51.468;5.814;2024-03-25T00:49:10;36.72;;;5.35;;
60243;SDS011;46106;51.468;5.814;2024-03-25T00:51:35;46.90;;;5.85;;
60243;SDS011;46106;51.468;5.814;2024-03-25T00:54:01;33.20;;;4.47;;
60243;SDS011;46106;51.468;5.814;2024-03-25T00:56:26;35.95;;;4.75;;
60243;SDS011;46106;51.468;5.814;2024-03-25T00:58:52;38.97;;;4.47;;
60243;SDS011;46106;51.468;5.814;2024-03-25T01:01:17;36.90;;;4.45;;
60243;SDS011;46106;51.468;5.814;2024-03-25T01:03:42;25.30;;;3.72;;
60243;SDS011;46106;51.468;5.814;2024-03-25T01:06:07;33.65;;;3.95;;
60243;SDS011;46106;51.468;5.814;2024-03-25T01:08:33;43.75;;;5.78;;
60243;SDS011;46106;51.468;5.814;2024-03-25T01:10:58;33.30;;;4.13;;
60243;SDS011;46106;51.468;5.814;2024-03-25T01:13:23;26.40;;;4.82;;
60243;SDS011;46106;51.468;5.814;2024-03-25T01:15:49;31.00;;;3.78;;
60243;SDS011;46106;51.468;5.814;2024-03-25T01:18:14;40.20;;;4.47;;
60243;SDS011;46106;51.468;5.814;2024-03-25T01:20:39;35.55;;;4.75;;
60243;SDS011;46106;51.468;5.814;2024-03-25T01:23:05;38.60;;;4.90;;
60243;SDS011;46106;51.468;5.814;2024-03-25T01:25:30;33.97;;;4.13;;
60243;SDS011;46106;51.468;5.814;2024-03-25T01:27:56;28.63;;;4.13;;
60243;SDS011;46106;51.468;5.814;2024-03-25T01:30:22;33.67;;;4.15;;
60243;SDS011;46106;51.468;5.814;2024-03-25T01:32:47;28.38;;;4.70;;
60243;SDS011;46106;51.468;5.814;2024-03-25T01:35:13;21.00;;;3.92;;
60243;SDS011;46106;51.468;5.814;2024-03-25T01:40:13;26.48;;;3.65;;
60243;SDS011;46106;51.468;5.814;2024-03-25T01:42:39;27.13;;;4.07;;
60243;SDS011;46106;51.468;5.814;2024-03-25T01:55:26;56.47;;;6.00;;
60243;SDS011;46106;51.468;5.814;2024-03-25T01:57:55;21.58;;;3.65;;
60243;SDS011;46106;51.468;5.814;2024-03-25T02:00:21;30.52;;;4.10;;
60243;SDS011;46106;51.468;5.814;2024-03-25T02:02:49;30.73;;;3.97;;
60243;SDS011;46106;51.468;5.814;2024-03-25T02:05:16;46.22;;;5.47;;
60243;SDS011;46106;51.468;5.814;2024-03-25T02:12:53;26.75;;;4.22;;
60243;SDS011;46106;51.468;5.814;2024-03-25T02:15:19;32.95;;;5.18;;
60243;SDS011;46106;51.468;5.814;2024-03-25T02:17:45;33.92;;;4.35;;
60243;SDS011;46106;51.468;5.814;2024-03-25T02:20:10;29.50;;;4.35;;
60243;SDS011;46106;51.468;5.814;2024-03-25T02:22:36;31.58;;;5.38;;
60243;SDS011;46106;51.468;5.814;2024-03-25T02:25:06;33.88;;;5.13;;
60243;SDS011;46106;51.468;5.814;2024-03-25T02:27:32;32.08;;;4.80;;
60243;SDS011;46106;51.468;5.814;2024-03-25T02:30:05;28.52;;;4.25;;
60243;SDS011;46106;51.468;5.814;2024-03-25T02:32:31;27.45;;;4.82;;
60243;SDS011;46106;51.468;5.814;2024-03-25T02:34:57;39.42;;;5.20;;
60243;SDS011;46106;51.468;5.814;2024-03-25T02:37:22;35.70;;;5.78;;
60243;SDS011;46106;51.468;5.814;2024-03-25T02:39:48;27.17;;;5.28;;
60243;SDS011;46106;51.468;5.814;2024-03-25T02:42:13;26.90;;;4.72;;
60243;SDS011;46106;51.468;5.814;2024-03-25T02:44:39;29.35;;;5.35;;
60243;SDS011;46106;51.468;5.814;2024-03-25T02:47:04;30.13;;;5.60;;
60243;SDS011;46106;51.468;5.814;2024-03-25T02:49:30;33.97;;;4.88;;
60243;SDS011;46106;51.468;5.814;2024-03-25T02:51:55;33.58;;;6.18;;
60243;SDS011;46106;51.468;5.814;2024-03-25T02:54:20;29.88;;;5.00;;
60243;SDS011;46106;51.468;5.814;2024-03-25T02:56:46;32.78;;;5.85;;
60243;SDS011;46106;51.468;5.814;2024-03-25T02:59:11;25.55;;;5.32;;
60243;SDS011;46106;51.468;5.814;2024-03-25T03:01:36;37.45;;;5.05;;
60243;SDS011;46106;51.468;5.814;2024-03-25T03:04:01;43.92;;;5.88;;
60243;SDS011;46106;51.468;5.814;2024-03-25T03:06:27;26.38;;;5.85;;
60243;SDS011;46106;51.468;5.814;2024-03-25T03:08:52;32.03;;;5.95;;
60243;SDS011;46106;51.468;5.814;2024-03-25T03:11:17;24.13;;;5.32;;
60243;SDS011;46106;51.468;5.814;2024-03-25T03:13:42;24.92;;;5.80;;
60243;SDS011;46106;51.468;5.814;2024-03-25T03:16:08;30.85;;;6.32;;
60243;SDS011;46106;51.468;5.814;2024-03-25T03:18:33;34.88;;;6.60;;
60243;SDS011;46106;51.468;5.814;2024-03-25T03:20:59;32.13;;;6.90;;
60243;SDS011;46106;51.468;5.814;2024-03-25T03:23:24;34.85;;;6.30;;
60243;SDS011;46106;51.468;5.814;2024-03-25T03:25:50;41.45;;;7.22;;
60243;SDS011;46106;51.468;5.814;2024-03-25T03:28:15;33.35;;;6.85;;
60243;SDS011;46106;51.468;5.814;2024-03-25T03:30:42;31.05;;;6.38;;
60243;SDS011;46106;51.468;5.814;2024-03-25T03:33:07;34.15;;;7.63;;
60243;SDS011;46106;51.468;5.814;2024-03-25T03:35:35;29.05;;;6.70;;
60243;SDS011;46106;51.468;5.814;2024-03-25T03:38:01;34.25;;;5.93;;
60243;SDS011;46106;51.468;5.814;2024-03-25T03:40:27;35.85;;;7.30;;
60243;SDS011;46106;51.468;5.814;2024-03-25T03:42:53;24.05;;;6.57;;
60243;SDS011;46106;51.468;5.814;2024-03-25T03:45:19;36.17;;;7.72;;
60243;SDS011;46106;51.468;5.814;2024-03-25T03:47:44;44.20;;;7.80;;
60243;SDS011;46106;51.468;5.814;2024-03-25T03:50:09;33.50;;;8.95;;
60243;SDS011;46106;51.468;5.814;2024-03-25T03:52:35;33.40;;;7.63;;
60243;SDS011;46106;51.468;5.814;2024-03-25T03:55:00;33.95;;;7.70;;
60243;SDS011;46106;51.468;5.814;2024-03-25T03:57:25;43.17;;;7.78;;
60243;SDS011;46106;51.468;5.814;2024-03-25T03:59:51;42.65;;;7.63;;
60243;SDS011;46106;51.468;5.814;2024-03-25T04:02:20;32.92;;;7.63;;
60243;SDS011;46106;51.468;5.814;2024-03-25T04:04:45;36.60;;;8.30;;
60243;SDS011;46106;51.468;5.814;2024-03-25T04:07:10;33.38;;;8.07;;
60243;SDS011;46106;51.468;5.814;2024-03-25T04:09:36;45.60;;;8.55;;
60243;SDS011;46106;51.468;5.814;2024-03-25T04:12:01;38.80;;;9.30;;
60243;SDS011;46106;51.468;5.814;2024-03-25T04:14:26;36.85;;;9.75;;
60243;SDS011;46106;51.468;5.814;2024-03-25T04:16:52;40.10;;;10.07;;
60243;SDS011;46106;51.468;5.814;2024-03-25T04:19:17;47.53;;;10.60;;
60243;SDS011;46106;51.468;5.814;2024-03-25T04:21:42;41.40;;;9.63;;
60243;SDS011;46106;51.468;5.814;2024-03-25T04:24:08;35.47;;;9.45;;
60243;SDS011;46106;51.468;5.814;2024-03-25T04:26:33;28.50;;;10.40;;
60243;SDS011;46106;51.468;5.814;2024-03-25T04:28:59;31.85;;;10.55;;
60243;SDS011;46106;51.468;5.814;2024-03-25T04:31:24;39.13;;;9.90;;
60243;SDS011;46106;51.468;5.814;2024-03-25T04:33:50;37.03;;;11.30;;
60243;SDS011;46106;51.468;5.814;2024-03-25T04:36:15;44.55;;;10.18;;
60243;SDS011;46106;51.468;5.814;2024-03-25T04:38:40;33.45;;;10.50;;
60243;SDS011;46106;51.468;5.814;2024-03-25T04:41:06;42.97;;;12.02;;
60243;SDS011;46106;51.468;5.814;2024-03-25T04:43:31;39.92;;;12.25;;
60243;SDS011;46106;51.468;5.814;2024-03-25T04:46:00;41.97;;;11.85;;
60243;SDS011;46106;51.468;5.814;2024-03-25T04:48:26;38.90;;;11.77;;
60243;SDS011;46106;51.468;5.814;2024-03-25T04:50:52;42.38;;;12.27;;
60243;SDS011;46106;51.468;5.814;2024-03-25T04:53:17;42.75;;;11.57;;
60243;SDS011;46106;51.468;5.814;2024-03-25T04:55:42;41.75;;;11.65;;
60243;SDS011;46106;51.468;5.814;2024-03-25T04:58:08;37.50;;;11.82;;
60243;SDS011;46106;51.468;5.814;2024-03-25T05:00:33;45.53;;;13.38;;
60243;SDS011;46106;51.468;5.814;2024-03-25T05:02:58;39.03;;;12.23;;
60243;SDS011;46106;51.468;5.814;2024-03-25T05:05:27;43.53;;;13.15;;
60243;SDS011;46106;51.468;5.814;2024-03-25T05:07:52;36.85;;;13.20;;
60243;SDS011;46106;51.468;5.814;2024-03-25T05:10:17;43.08;;;12.90;;
60243;SDS011;46106;51.468;5.814;2024-03-25T05:12:43;45.38;;;12.98;;
60243;SDS011;46106;51.468;5.814;2024-03-25T05:15:08;39.13;;;12.95;;
60243;SDS011;46106;51.468;5.814;2024-03-25T05:17:33;42.28;;;12.75;;
60243;SDS011;46106;51.468;5.814;2024-03-25T05:19:59;40.83;;;13.18;;
60243;SDS011;46106;51.468;5.814;2024-03-25T05:22:24;39.03;;;13.65;;
60243;SDS011;46106;51.468;5.814;2024-03-25T05:24:49;36.85;;;11.63;;
60243;SDS011;46106;51.468;5.814;2024-03-25T05:27:15;35.63;;;12.15;;
60243;SDS011;46106;51.468;5.814;2024-03-25T05:29:40;36.80;;;12.68;;
60243;SDS011;46106;51.468;5.814;2024-03-25T05:32:05;46.60;;;13.60;;
60243;SDS011;46106;51.468;5.814;2024-03-25T05:34:31;37.13;;;13.23;;
60243;SDS011;46106;51.468;5.814;2024-03-25T05:36:56;43.65;;;12.30;;
60243;SDS011;46106;51.468;5.814;2024-03-25T05:39:21;40.35;;;13.00;;
60243;SDS011;46106;51.468;5.814;2024-03-25T05:41:47;46.75;;;14.10;;
60243;SDS011;46106;51.468;5.814;2024-03-25T05:44:12;40.30;;;12.82;;
60243;SDS011;46106;51.468;5.814;2024-03-25T05:46:38;51.78;;;13.77;;
60243;SDS011;46106;51.468;5.814;2024-03-25T05:49:04;54.33;;;14.55;;
60243;SDS011;46106;51.468;5.814;2024-03-25T05:51:30;37.30;;;13.45;;
60243;SDS011;46106;51.468;5.814;2024-03-25T05:53:58;41.85;;;12.77;;
60243;SDS011;46106;51.468;5.814;2024-03-25T05:56:24;25.98;;;11.93;;
60243;SDS011;46106;51.468;5.814;2024-03-25T05:58:49;32.13;;;12.55;;
60243;SDS011;46106;51.468;5.814;2024-03-25T06:01:15;37.65;;;13.02;;
60243;SDS011;46106;51.468;5.814;2024-03-25T06:03:40;33.63;;;13.40;;
60243;SDS011;46106;51.468;5.814;2024-03-25T06:06:05;40.65;;;12.80;;
60243;SDS011;46106;51.468;5.814;2024-03-25T06:08:30;37.58;;;13.57;;
60243;SDS011;46106;51.468;5.814;2024-03-25T06:11:00;37.17;;;13.27;;
60243;SDS011;46106;51.468;5.814;2024-03-25T06:13:26;34.53;;;13.35;;
60243;SDS011;46106;51.468;5.814;2024-03-25T06:15:52;41.72;;;14.18;;
60243;SDS011;46106;51.468;5.814;2024-03-25T06:18:17;48.75;;;14.75;;
60243;SDS011;46106;51.468;5.814;2024-03-25T06:20:42;31.92;;;13.57;;
60243;SDS011;46106;51.468;5.814;2024-03-25T06:23:08;44.88;;;13.90;;
60243;SDS011;46106;51.468;5.814;2024-03-25T06:25:33;38.88;;;13.45;;
60243;SDS011;46106;51.468;5.814;2024-03-25T06:27:59;44.05;;;13.13;;
60243;SDS011;46106;51.468;5.814;2024-03-25T06:30:24;54.35;;;13.38;;
60243;SDS011;46106;51.468;5.814;2024-03-25T06:32:49;41.60;;;13.25;;
60243;SDS011;46106;51.468;5.814;2024-03-25T06:35:15;38.95;;;13.32;;
60243;SDS011;46106;51.468;5.814;2024-03-25T06:37:40;36.57;;;12.97;;
60243;SDS011;46106;51.468;5.814;2024-03-25T06:40:05;36.65;;;13.35;;
60243;SDS011;46106;51.468;5.814;2024-03-25T06:42:31;36.75;;;12.90;;
60243;SDS011;46106;51.468;5.814;2024-03-25T06:44:56;35.92;;;13.60;;
60243;SDS011;46106;51.468;5.814;2024-03-25T06:47:22;28.48;;;12.52;;
60243;SDS011;46106;51.468;5.814;2024-03-25T06:49:47;30.42;;;11.60;;
60243;SDS011;46106;51.468;5.814;2024-03-25T06:52:12;24.23;;;11.18;;
60243;SDS011;46106;51.468;5.814;2024-03-25T06:54:37;35.72;;;10.88;;
60243;SDS011;46106;51.468;5.814;2024-03-25T06:57:03;33.72;;;11.43;;
60243;SDS011;46106;51.468;5.814;2024-03-25T06:59:28;29.92;;;10.23;;
60243;SDS011;46106;51.468;5.814;2024-03-25T07:01:53;30.07;;;10.40;;
60243;SDS011;46106;51.468;5.814;2024-03-25T07:04:19;28.92;;;10.45;;
60243;SDS011;46106;51.468;5.814;2024-03-25T07:06:44;29.92;;;11.23;;
60243;SDS011;46106;51.468;5.814;2024-03-25T07:09:09;31.40;;;10.32;;
60243;SDS011;46106;51.468;5.814;2024-03-25T07:11:34;29.45;;;10.10;;
60243;SDS011;46106;51.468;5.814;2024-03-25T07:14:00;28.52;;;10.15;;
60243;SDS011;46106;51.468;5.814;2024-03-25T07:16:25;23.15;;;8.90;;
60243;SDS011;46106;51.468;5.814;2024-03-25T07:18:50;32.38;;;9.18;;
60243;SDS011;46106;51.468;5.814;2024-03-25T07:21:16;27.95;;;9.80;;
60243;SDS011;46106;51.468;5.814;2024-03-25T07:23:41;24.45;;;8.50;;
60243;SDS011;46106;51.468;5.814;2024-03-25T07:26:06;22.60;;;8.88;;
60243;SDS011;46106;51.468;5.814;2024-03-25T07:28:31;20.90;;;8.73;;
60243;SDS011;46106;51.468;5.814;2024-03-25T07:30:57;29.48;;;8.38;;
60243;SDS011;46106;51.468;5.814;2024-03-25T07:33:22;18.33;;;7.75;;
60243;SDS011;46106;51.468;5.814;2024-03-25T07:35:47;23.73;;;8.82;;
60243;SDS011;46106;51.468;5.814;2024-03-25T07:38:12;19.90;;;7.93;;
60243;SDS011;46106;51.468;5.814;2024-03-25T07:40:38;24.02;;;8.20;;
60243;SDS011;46106;51.468;5.814;2024-03-25T07:43:03;24.33;;;8.38;;
60243;SDS011;46106;51.468;5.814;2024-03-25T07:45:28;21.55;;;8.65;;
60243;SDS011;46106;51.468;5.814;2024-03-25T07:47:54;16.45;;;7.80;;
60243;SDS011;46106;51.468;5.814;2024-03-25T07:50:19;21.45;;;8.10;;
60243;SDS011;46106;51.468;5.814;2024-03-25T07:52:44;19.27;;;7.80;;
60243;SDS011;46106;51.468;5.814;2024-03-25T07:55:10;24.15;;;8.20;;
60243;SDS011;46106;51.468;5.814;2024-03-25T07:57:35;23.75;;;9.13;;
60243;SDS011;46106;51.468;5.814;2024-03-25T08:00:01;15.70;;;7.90;;
60243;SDS011;46106;51.468;5.814;2024-03-25T08:02:27;19.17;;;7.72;;
60243;SDS011;46106;51.468;5.814;2024-03-25T08:04:52;21.70;;;8.82;;
60243;SDS011;46106;51.468;5.814;2024-03-25T08:07:18;24.38;;;8.68;;
60243;SDS011;46106;51.468;5.814;2024-03-25T08:09:43;16.25;;;7.38;;
60243;SDS011;46106;51.468;5.814;2024-03-25T08:12:08;16.75;;;8.40;;
60243;SDS011;46106;51.468;5.814;2024-03-25T08:14:34;22.75;;;9.48;;
60243;SDS011;46106;51.468;5.814;2024-03-25T08:19:56;22.77;;;9.57;;
60243;SDS011;46106;51.468;5.814;2024-03-25T08:22:22;23.27;;;9.97;;
60243;SDS011;46106;51.468;5.814;2024-03-25T08:24:47;23.10;;;9.57;;
60243;SDS011;46106;51.468;5.814;2024-03-25T08:27:12;21.30;;;10.77;;
60243;SDS011;46106;51.468;5.814;2024-03-25T08:29:37;22.10;;;10.43;;
60243;SDS011;46106;51.468;5.814;2024-03-25T08:32:03;24.30;;;9.73;;
60243;SDS011;46106;51.468;5.814;2024-03-25T08:34:28;27.00;;;10.95;;
60243;SDS011;46106;51.468;5.814;2024-03-25T08:36:54;22.40;;;12.15;;
60243;SDS011;46106;51.468;5.814;2024-03-25T08:39:19;31.05;;;10.90;;
60243;SDS011;46106;51.468;5.814;2024-03-25T08:41:45;35.47;;;12.13;;
60243;SDS011;46106;51.468;5.814;2024-03-25T08:44:11;28.47;;;11.70;;
60243;SDS011;46106;51.468;5.814;2024-03-25T08:46:36;34.45;;;12.60;;
60243;SDS011;46106;51.468;5.814;2024-03-25T08:49:01;28.25;;;11.63;;
60243;SDS011;46106;51.468;5.814;2024-03-25T08:51:27;28.70;;;10.80;;
60243;SDS011;46106;51.468;5.814;2024-03-25T08:53:52;29.95;;;13.07;;
60243;SDS011;46106;51.468;5.814;2024-03-25T08:56:17;32.88;;;12.82;;
60243;SDS011;46106;51.468;5.814;2024-03-25T08:58:42;39.65;;;13.45;;
60243;SDS011;46106;51.468;5.814;2024-03-25T09:01:08;32.13;;;12.77;;
60243;SDS011;46106;51.468;5.814;2024-03-25T09:03:33;38.58;;;12.93;;
60243;SDS011;46106;51.468;5.814;2024-03-25T09:05:58;37.67;;;13.17;;
60243;SDS011;46106;51.468;5.814;2024-03-25T09:08:23;30.15;;;11.98;;
60243;SDS011;46106;51.468;5.814;2024-03-25T09:10:49;27.20;;;11.13;;
60243;SDS011;46106;51.468;5.814;2024-03-25T09:13:14;30.05;;;12.00;;
60243;SDS011;46106;51.468;5.814;2024-03-25T09:15:39;24.90;;;12.13;;
60243;SDS011;46106;51.468;5.814;2024-03-25T09:18:05;29.48;;;11.75;;
60243;SDS011;46106;51.468;5.814;2024-03-25T09:20:30;29.08;;;11.38;;
60243;SDS011;46106;51.468;5.814;2024-03-25T09:22:55;35.55;;;11.90;;
60243;SDS011;46106;51.468;5.814;2024-03-25T09:25:21;25.97;;;11.23;;
60243;SDS011;46106;51.468;5.814;2024-03-25T09:27:49;30.83;;;12.60;;
60243;SDS011;46106;51.468;5.814;2024-03-25T09:30:15;30.05;;;11.60;;
60243;SDS011;46106;51.468;5.814;2024-03-25T09:32:41;27.63;;;11.55;;
60243;SDS011;46106;51.468;5.814;2024-03-25T09:35:07;31.63;;;12.07;;
60243;SDS011;46106;51.468;5.814;2024-03-25T09:37:33;30.33;;;11.32;;
60243;SDS011;46106;51.468;5.814;2024-03-25T09:39:58;23.02;;;11.40;;
60243;SDS011;46106;51.468;5.814;2024-03-25T09:42:27;29.40;;;10.43;;
60243;SDS011;46106;51.468;5.814;2024-03-25T09:44:58;26.60;;;10.88;;
60243;SDS011;46106;51.468;5.814;2024-03-25T09:47:27;24.60;;;9.45;;
60243;SDS011;46106;51.468;5.814;2024-03-25T09:49:54;26.90;;;9.32;;
60243;SDS011;46106;51.468;5.814;2024-03-25T09:52:20;26.42;;;8.07;;
60243;SDS011;46106;51.468;5.814;2024-03-25T09:54:45;19.95;;;8.93;;
60243;SDS011;46106;51.468;5.814;2024-03-25T09:57:11;17.45;;;8.82;;
60243;SDS011;46106;51.468;5.814;2024-03-25T09:59:37;20.73;;;9.27;;
60243;SDS011;46106;51.468;5.814;2024-03-25T10:02:02;20.50;;;9.20;;
60243;SDS011;46106;51.468;5.814;2024-03-25T10:04:28;26.30;;;9.93;;
60243;SDS011;46106;51.468;5.814;2024-03-25T10:06:54;27.08;;;10.63;;
60243;SDS011;46106;51.468;5.814;2024-03-25T10:09:20;29.63;;;10.98;;
60243;SDS011;46106;51.468;5.814;2024-03-25T10:11:48;24.63;;;10.00;;
60243;SDS011;46106;51.468;5.814;2024-03-25T10:14:15;24.67;;;8.80;;
60243;SDS011;46106;51.468;5.814;2024-03-25T10:16:41;25.95;;;9.15;;
60243;SDS011;46106;51.468;5.814;2024-03-25T10:19:07;25.15;;;9.25;;
60243;SDS011;46106;51.468;5.814;2024-03-25T10:21:32;26.80;;;9.02;;
60243;SDS011;46106;51.468;5.814;2024-03-25T10:23:57;20.38;;;8.85;;
60243;SDS011;46106;51.468;5.814;2024-03-25T10:26:29;25.83;;;9.25;;
60243;SDS011;46106;51.468;5.814;2024-03-25T10:28:59;22.35;;;8.88;;
60243;SDS011;46106;51.468;5.814;2024-03-25T10:31:29;23.38;;;8.45;;
60243;SDS011;46106;51.468;5.814;2024-03-25T10:33:54;19.52;;;7.07;;
60243;SDS011;46106;51.468;5.814;2024-03-25T10:36:21;17.90;;;7.30;;
60243;SDS011;46106;51.468;5.814;2024-03-25T10:38:49;19.23;;;6.20;;
60243;SDS011;46106;51.468;5.814;2024-03-25T10:41:18;15.23;;;6.60;;
60243;SDS011;46106;51.468;5.814;2024-03-25T10:43:45;16.92;;;5.75;;
60243;SDS011;46106;51.468;5.814;2024-03-25T10:46:12;18.60;;;6.22;;
60243;SDS011;46106;51.468;5.814;2024-03-25T10:48:43;20.30;;;7.53;;
60243;SDS011;46106;51.468;5.814;2024-03-25T10:51:12;26.48;;;7.57;;
60243;SDS011;46106;51.468;5.814;2024-03-25T10:53:38;16.10;;;6.47;;
60243;SDS011;46106;51.468;5.814;2024-03-25T10:56:06;13.63;;;6.00;;
60243;SDS011;46106;51.468;5.814;2024-03-25T10:58:32;16.17;;;6.00;;
60243;SDS011;46106;51.468;5.814;2024-03-25T11:00:58;13.60;;;5.13;;
60243;SDS011;46106;51.468;5.814;2024-03-25T11:03:25;14.27;;;4.63;;
60243;SDS011;46106;51.468;5.814;2024-03-25T11:05:51;13.80;;;5.28;;
60243;SDS011;46106;51.468;5.814;2024-03-25T11:08:17;8.38;;;3.63;;
60243;SDS011;46106;51.468;5.814;2024-03-25T11:10:46;13.57;;;3.95;;
60243;SDS011;46106;51.468;5.814;2024-03-25T11:13:18;9.45;;;3.65;;
60243;SDS011;46106;51.468;5.814;2024-03-25T11:15:45;11.10;;;4.07;;
60243;SDS011;46106;51.468;5.814;2024-03-25T11:18:11;10.55;;;4.32;;
60243;SDS011;46106;51.468;5.814;2024-03-25T11:20:40;14.07;;;3.97;;
60243;SDS011;46106;51.468;5.814;2024-03-25T11:23:09;11.30;;;3.83;;
60243;SDS011;46106;51.468;5.814;2024-03-25T11:25:36;11.50;;;3.65;;
60243;SDS011;46106;51.468;5.814;2024-03-25T11:28:02;15.98;;;4.38;;
60243;SDS011;46106;51.468;5.814;2024-03-25T11:30:28;10.65;;;3.83;;
60243;SDS011;46106;51.468;5.814;2024-03-25T11:32:54;14.35;;;5.20;;
60243;SDS011;46106;51.468;5.814;2024-03-25T11:35:20;9.00;;;3.03;;
60243;SDS011;46106;51.468;5.814;2024-03-25T11:37:46;10.10;;;3.50;;
60243;SDS011;46106;51.468;5.814;2024-03-25T11:40:12;8.18;;;2.70;;
60243;SDS011;46106;51.468;5.814;2024-03-25T11:42:39;8.80;;;2.90;;
60243;SDS011;46106;51.468;5.814;2024-03-25T11:45:10;9.85;;;3.50;;
60243;SDS011;46106;51.468;5.814;2024-03-25T11:47:39;13.10;;;3.42;;
60243;SDS011;46106;51.468;5.814;2024-03-25T11:50:12;12.77;;;3.60;;
60243;SDS011;46106;51.468;5.814;2024-03-25T11:52:38;9.70;;;2.92;;
60243;SDS011;46106;51.468;5.814;2024-03-25T11:55:04;4.50;;;2.35;;
60243;SDS011;46106;51.468;5.814;2024-03-25T11:57:30;12.25;;;2.83;;
60243;SDS011;46106;51.468;5.814;2024-03-25T11:59:57;7.55;;;2.15;;
60243;SDS011;46106;51.468;5.814;2024-03-25T12:02:23;7.28;;;2.22;;
60243;SDS011;46106;51.468;5.814;2024-03-25T12:04:49;9.15;;;2.15;;
60243;SDS011;46106;51.468;5.814;2024-03-25T12:07:15;5.38;;;2.20;;
60243;SDS011;46106;51.468;5.814;2024-03-25T12:09:41;6.95;;;1.73;;
60243;SDS011;46106;51.468;5.814;2024-03-25T12:12:07;6.70;;;1.88;;
60243;SDS011;46106;51.468;5.814;2024-03-25T12:14:33;5.20;;;1.92;;
60243;SDS011;46106;51.468;5.814;2024-03-25T12:16:59;6.40;;;1.80;;
60243;SDS011;46106;51.468;5.814;2024-03-25T12:19:25;6.05;;;2.10;;
60243;SDS011;46106;51.468;5.814;2024-03-25T12:21:50;5.45;;;2.20;;
60243;SDS011;46106;51.468;5.814;2024-03-25T12:24:15;14.20;;;2.78;;
60243;SDS011;46106;51.468;5.814;2024-03-25T12:26:41;9.63;;;2.10;;
60243;SDS011;46106;51.468;5.814;2024-03-25T12:29:06;4.50;;;2.17;;
60243;SDS011;46106;51.468;5.814;2024-03-25T12:31:32;7.20;;;1.90;;
60243;SDS011;46106;51.468;5.814;2024-03-25T12:33:57;10.75;;;2.33;;
60243;SDS011;46106;51.468;5.814;2024-03-25T12:36:23;5.65;;;1.88;;
60243;SDS011;46106;51.468;5.814;2024-03-25T12:38:55;8.32;;;2.03;;
60243;SDS011;46106;51.468;5.814;2024-03-25T12:41:22;8.77;;;2.35;;
60243;SDS011;46106;51.468;5.814;2024-03-25T12:43:48;5.72;;;2.10;;
60243;SDS011;46106;51.468;5.814;2024-03-25T12:46:14;6.43;;;2.63;;
60243;SDS011;46106;51.468;5.814;2024-03-25T12:48:40;8.25;;;2.47;;
60243;SDS011;46106;51.468;5.814;2024-03-25T12:51:05;5.18;;;2.28;;
60243;SDS011;46106;51.468;5.814;2024-03-25T12:53:31;5.47;;;2.00;;
60243;SDS011;46106;51.468;5.814;2024-03-25T12:55:56;4.60;;;2.20;;
60243;SDS011;46106;51.468;5.814;2024-03-25T12:58:21;6.85;;;2.00;;
60243;SDS011;46106;51.468;5.814;2024-03-25T13:00:47;6.13;;;1.73;;
60243;SDS011;46106;51.468;5.814;2024-03-25T13:03:12;6.07;;;2.33;;
60243;SDS011;46106;51.468;5.814;2024-03-25T13:05:38;9.35;;;2.20;;
60243;SDS011;46106;51.468;5.814;2024-03-25T13:08:04;5.85;;;2.20;;
60243;SDS011;46106;51.468;5.814;2024-03-25T13:10:30;5.72;;;2.35;;
60243;SDS011;46106;51.468;5.814;2024-03-25T13:12:55;2.80;;;1.85;;
60243;SDS011;46106;51.468;5.814;2024-03-25T13:15:21;4.93;;;2.25;;
60243;SDS011;46106;51.468;5.814;2024-03-25T13:17:48;6.13;;;2.10;;
60243;SDS011;46106;51.468;5.814;2024-03-25T13:20:13;5.35;;;2.40;;
60243;SDS011;46106;51.468;5.814;2024-03-25T13:22:39;5.00;;;1.83;;
60243;SDS011;46106;51.468;5.814;2024-03-25T13:25:04;7.05;;;2.47;;
60243;SDS011;46106;51.468;5.814;2024-03-25T13:27:30;7.55;;;2.88;;
60243;SDS011;46106;51.468;5.814;2024-03-25T13:29:55;9.20;;;2.85;;
60243;SDS011;46106;51.468;5.814;2024-03-25T13:32:20;6.28;;;2.45;;
60243;SDS011;46106;51.468;5.814;2024-03-25T13:34:46;7.70;;;2.85;;
60243;SDS011;46106;51.468;5.814;2024-03-25T13:37:12;7.75;;;2.13;;
60243;SDS011;46106;51.468;5.814;2024-03-25T13:39:37;7.10;;;2.05;;
60243;SDS011;46106;51.468;5.814;2024-03-25T13:42:03;5.07;;;2.13;;
60243;SDS011;46106;51.468;5.814;2024-03-25T13:44:28;6.65;;;2.75;;
60243;SDS011;46106;51.468;5.814;2024-03-25T13:46:54;10.65;;;2.58;;
60243;SDS011;46106;51.468;5.814;2024-03-25T13:49:20;6.60;;;2.10;;
60243;SDS011;46106;51.468;5.814;2024-03-25T13:51:45;11.77;;;2.70;;
60243;SDS011;46106;51.468;5.814;2024-03-25T13:54:10;7.78;;;2.38;;
60243;SDS011;46106;51.468;5.814;2024-03-25T13:56:36;4.90;;;2.20;;
60243;SDS011;46106;51.468;5.814;2024-03-25T13:59:01;7.85;;;3.10;;
60243;SDS011;46106;51.468;5.814;2024-03-25T14:01:26;4.15;;;2.45;;
60243;SDS011;46106;51.468;5.814;2024-03-25T14:03:52;5.22;;;2.05;;
60243;SDS011;46106;51.468;5.814;2024-03-25T14:06:17;6.45;;;2.35;;
60243;SDS011;46106;51.468;5.814;2024-03-25T14:08:42;8.00;;;2.22;;
60243;SDS011;46106;51.468;5.814;2024-03-25T14:11:07;7.40;;;2.40;;
60243;SDS011;46106;51.468;5.814;2024-03-25T14:13:33;8.88;;;2.65;;
60243;SDS011;46106;51.468;5.814;2024-03-25T14:15:58;7.47;;;2.50;;
60243;SDS011;46106;51.468;5.814;2024-03-25T14:18:24;5.18;;;1.92;;
60243;SDS011;46106;51.468;5.814;2024-03-25T14:20:51;5.18;;;2.47;;
60243;SDS011;46106;51.468;5.814;2024-03-25T14:23:17;5.93;;;2.13;;
60243;SDS011;46106;51.468;5.814;2024-03-25T14:25:42;4.35;;;1.90;;
60243;SDS011;46106;51.468;5.814;2024-03-25T14:28:08;5.15;;;1.85;;
60243;SDS011;46106;51.468;5.814;2024-03-25T14:30:33;8.75;;;1.90;;
60243;SDS011;46106;51.468;5.814;2024-03-25T14:32:58;5.93;;;2.00;;
60243;SDS011;46106;51.468;5.814;2024-03-25T14:35:26;3.85;;;1.45;;
60243;SDS011;46106;51.468;5.814;2024-03-25T14:37:52;4.80;;;1.88;;
60243;SDS011;46106;51.468;5.814;2024-03-25T14:40:17;3.70;;;1.60;;
60243;SDS011;46106;51.468;5.814;2024-03-25T14:42:46;5.82;;;1.65;;
60243;SDS011;46106;51.468;5.814;2024-03-25T14:45:11;3.53;;;1.73;;